createdAt,value
2018-02-04T00:02:00.520Z,14.90
2018-02-04T00:04:27.969Z,14.68
2018-02-04T00:06:55.399Z,16.53
2018-02-04T00:09:23.729Z,15.32
2018-02-04T00:11:51.296Z,16.60
2018-02-04T00:14:18.862Z,16.42
2018-02-04T00:16:46.309Z,16.08
2018-02-04T00:19:13.770Z,18.42
2018-02-04T00:21:41.197Z,16.87
2018-02-04T00:24:08.634Z,16.73
2018-02-04T00:26:36.151Z,17.23
2018-02-04T00:29:03.576Z,17.33
2018-02-04T00:31:31.026Z,15.90
2018-02-04T00:33:58.465Z,16.92
2018-02-04T00:36:26.065Z,16.12
2018-02-04T00:38:53.594Z,17.30
2018-02-04T00:41:21.209Z,16.83
2018-02-04T00:43:48.638Z,18.53
2018-02-04T00:46:16.180Z,17.15
2018-02-04T00:48:43.633Z,18.35
2018-02-04T00:51:11.094Z,17.60
2018-02-04T00:53:38.526Z,16.65
2018-02-04T00:56:06.125Z,17.83
2018-02-04T00:58:33.577Z,17.12
2018-02-04T01:01:01.118Z,16.53
2018-02-04T01:03:28.621Z,16.75
2018-02-04T01:05:56.074Z,16.55
2018-02-04T01:08:23.614Z,17.10
2018-02-04T01:10:51.148Z,16.40
2018-02-04T01:13:18.612Z,16.80
2018-02-04T01:15:46.062Z,17.25
2018-02-04T01:18:13.493Z,19.80
2018-02-04T01:20:40.950Z,17.63
2018-02-04T01:23:08.454Z,16.85
2018-02-04T01:25:35.918Z,17.77
2018-02-04T01:28:03.373Z,17.77
2018-02-04T01:30:30.826Z,17.08
2018-02-04T01:32:58.389Z,17.52
2018-02-04T01:35:25.830Z,17.60
2018-02-04T01:37:53.286Z,17.52
2018-02-04T01:40:20.729Z,16.13
2018-02-04T01:42:48.166Z,18.20
2018-02-04T01:45:15.772Z,16.95
2018-02-04T01:47:43.209Z,18.02
2018-02-04T01:50:10.658Z,17.00
2018-02-04T01:52:38.129Z,18.67
2018-02-04T01:55:05.580Z,17.90
2018-02-04T01:57:33.018Z,15.75
2018-02-04T02:00:00.451Z,20.30
2018-02-04T02:02:27.977Z,19.00
2018-02-04T02:04:55.425Z,18.45
2018-02-04T02:07:22.966Z,17.17
2018-02-04T02:09:50.401Z,18.25
2018-02-04T02:12:17.837Z,17.27
2018-02-04T02:14:45.270Z,19.05
2018-02-04T02:17:13.478Z,16.42
2018-02-04T02:19:40.930Z,16.62
2018-02-04T02:22:09.134Z,17.65
2018-02-04T02:24:36.561Z,17.75
2018-02-04T02:27:03.997Z,17.15
2018-02-04T02:29:33.173Z,19.52
2018-02-04T02:32:00.625Z,16.10
2018-02-04T02:34:28.184Z,18.50
2018-02-04T02:36:55.743Z,17.07
2018-02-04T02:39:23.282Z,16.42
2018-02-04T02:41:50.725Z,16.37
2018-02-04T02:44:18.193Z,16.12
2018-02-04T02:46:45.629Z,17.35
2018-02-04T02:49:13.112Z,16.83
2018-02-04T02:51:40.545Z,18.02
2018-02-04T02:54:07.981Z,17.27
2018-02-04T02:56:35.461Z,16.17
2018-02-04T02:59:02.917Z,16.70
2018-02-04T03:01:30.394Z,16.23
2018-02-04T03:03:57.945Z,16.73
2018-02-04T03:06:25.377Z,17.90
2018-02-04T03:08:52.854Z,18.60
2018-02-04T03:11:20.315Z,17.00
2018-02-04T03:13:47.760Z,17.97
2018-02-04T03:16:15.202Z,17.17
2018-02-04T03:18:42.693Z,17.48
2018-02-04T03:21:10.143Z,18.73
2018-02-04T03:23:37.776Z,17.80
2018-02-04T03:26:05.197Z,17.55
2018-02-04T03:28:33.393Z,18.25
2018-02-04T03:31:00.877Z,17.42
2018-02-04T03:33:28.306Z,18.55
2018-02-04T03:35:55.737Z,18.90
2018-02-04T03:38:23.182Z,18.40
2018-02-04T03:40:51.417Z,18.47
2018-02-04T03:43:18.878Z,19.05
2018-02-04T03:45:46.437Z,19.70
2018-02-04T03:48:13.897Z,19.00
2018-02-04T03:50:41.433Z,21.45
2018-02-04T03:53:08.894Z,19.70
2018-02-04T03:55:36.361Z,21.10
2018-02-04T03:58:03.817Z,19.35
2018-02-04T04:00:31.253Z,18.65
2018-02-04T04:02:58.680Z,18.20
2018-02-04T04:05:26.938Z,17.35
2018-02-04T04:07:54.361Z,17.90
2018-02-04T04:10:21.798Z,17.00
2018-02-04T04:12:49.278Z,18.12
2018-02-04T04:15:16.702Z,17.20
2018-02-04T04:17:44.141Z,16.48
2018-02-04T04:20:12.361Z,16.40
2018-02-04T04:22:39.812Z,17.60
2018-02-04T04:25:07.245Z,16.40
2018-02-04T04:27:34.741Z,17.15
2018-02-04T04:30:02.179Z,15.25
2018-02-04T04:32:29.623Z,17.30
2018-02-04T04:34:57.183Z,16.33
2018-02-04T04:37:24.621Z,17.02
2018-02-04T04:39:52.121Z,15.70
2018-02-04T04:42:19.565Z,16.40
2018-02-04T04:44:47.059Z,16.10
2018-02-04T04:47:14.485Z,15.13
2018-02-04T04:49:41.919Z,17.50
2018-02-04T04:52:09.353Z,14.40
2018-02-04T04:54:36.785Z,15.37
2018-02-04T04:57:05.034Z,16.98
2018-02-04T04:59:32.462Z,15.70
2018-02-04T05:01:59.940Z,15.40
2018-02-04T05:04:27.381Z,15.45
2018-02-04T05:06:54.826Z,15.10
2018-02-04T05:09:22.270Z,15.77
2018-02-04T05:11:49.729Z,15.60
2018-02-04T05:14:17.162Z,14.80
2018-02-04T05:16:45.363Z,15.82
2018-02-04T05:19:12.857Z,16.35
2018-02-04T05:21:40.397Z,15.65
2018-02-04T05:24:07.839Z,16.20
2018-02-04T05:26:35.281Z,14.27
2018-02-04T05:29:02.717Z,16.42
2018-02-04T05:31:30.145Z,15.63
2018-02-04T05:33:57.573Z,15.75
2018-02-04T05:36:25.002Z,15.10
2018-02-04T05:38:52.441Z,15.02
2018-02-04T05:41:20.667Z,15.73
2018-02-04T05:43:48.126Z,14.45
2018-02-04T05:46:15.562Z,14.95
2018-02-04T05:48:42.989Z,14.35
2018-02-04T05:51:11.192Z,15.00
2018-02-04T05:53:38.621Z,14.65
2018-02-04T05:56:06.066Z,16.05
2018-02-04T05:58:34.297Z,15.40
2018-02-04T06:01:01.754Z,15.18
2018-02-04T06:03:29.209Z,14.82
2018-02-04T06:05:56.637Z,15.38
2018-02-04T06:08:24.121Z,15.20
2018-02-04T06:10:51.552Z,16.73
2018-02-04T06:13:19.048Z,16.47
2018-02-04T06:15:46.470Z,16.40
2018-02-04T06:18:13.906Z,16.20
2018-02-04T06:20:41.345Z,14.73
2018-02-04T06:23:10.429Z,15.60
2018-02-04T06:25:38.622Z,15.63
2018-02-04T06:28:06.826Z,16.77
2018-02-04T06:30:34.311Z,16.08
2018-02-04T06:33:01.733Z,14.93
2018-02-04T06:35:29.166Z,16.70
2018-02-04T06:37:57.369Z,15.85
2018-02-04T06:40:24.805Z,16.30
2018-02-04T06:42:52.300Z,16.00
2018-02-04T06:45:19.753Z,16.00
2018-02-04T06:47:47.211Z,15.50
2018-02-04T06:50:14.653Z,15.63
2018-02-04T06:52:42.109Z,16.10
2018-02-04T06:55:09.566Z,16.62
2018-02-04T06:57:37.045Z,17.00
2018-02-04T07:00:04.498Z,18.33
2018-02-04T07:02:31.936Z,16.65
2018-02-04T07:04:59.410Z,16.40
2018-02-04T07:07:26.836Z,17.23
2018-02-04T07:09:54.333Z,16.55
2018-02-04T07:12:21.756Z,16.33
2018-02-04T07:14:49.207Z,17.55
2018-02-04T07:17:16.629Z,17.03
2018-02-04T07:19:44.861Z,17.67
2018-02-04T07:22:12.289Z,16.62
2018-02-04T07:24:39.731Z,18.23
2018-02-04T07:27:07.912Z,15.50
2018-02-04T07:29:35.357Z,16.35
2018-02-04T07:32:02.852Z,16.85
2018-02-04T07:34:30.530Z,15.80
2018-02-04T07:36:57.997Z,15.20
2018-02-04T07:39:25.501Z,16.30
2018-02-04T07:41:53.028Z,14.82
2018-02-04T07:44:20.558Z,14.60
2018-02-04T07:46:47.995Z,13.10
2018-02-04T07:49:15.533Z,12.85
2018-02-04T07:51:43.030Z,12.13
2018-02-04T07:54:10.462Z,11.82
2018-02-04T07:56:37.977Z,12.27
2018-02-04T07:59:06.181Z,12.30
2018-02-04T08:01:33.796Z,12.32
2018-02-04T08:04:01.219Z,11.82
2018-02-04T08:06:28.664Z,11.00
2018-02-04T08:08:56.089Z,11.40
2018-02-04T08:11:24.297Z,10.90
2018-02-04T08:13:51.770Z,11.23
2018-02-04T08:16:19.306Z,9.82
2018-02-04T08:18:46.782Z,10.68
2018-02-04T08:21:14.237Z,10.15
2018-02-04T08:23:41.762Z,9.70
2018-02-04T08:26:09.269Z,10.68
2018-02-04T08:28:36.682Z,10.70
2018-02-04T08:31:04.110Z,10.07
2018-02-04T08:33:32.314Z,11.00
2018-02-04T08:35:59.746Z,10.10
2018-02-04T08:38:27.934Z,9.93
2018-02-04T08:40:55.429Z,9.88
2018-02-04T08:43:22.853Z,9.82
2018-02-04T08:45:50.306Z,9.88
2018-02-04T08:48:17.721Z,9.70
2018-02-04T08:50:45.277Z,10.07
2018-02-04T08:53:12.700Z,10.77
2018-02-04T08:55:40.133Z,10.00
2018-02-04T08:58:07.557Z,10.70
2018-02-04T09:00:34.983Z,11.33
2018-02-04T09:03:02.417Z,11.27
2018-02-04T09:05:29.853Z,11.00
2018-02-04T09:07:57.289Z,10.90
2018-02-04T09:10:25.485Z,10.68
2018-02-04T09:12:52.988Z,11.45
2018-02-04T09:15:20.415Z,10.50
2018-02-04T09:17:47.893Z,10.13
2018-02-04T09:20:15.344Z,11.50
2018-02-04T09:22:42.784Z,10.05
2018-02-04T09:25:10.201Z,10.15
2018-02-04T09:27:38.405Z,10.23
2018-02-04T09:30:05.826Z,10.37
2018-02-04T09:32:34.018Z,10.13
2018-02-04T09:35:01.447Z,10.75
2018-02-04T09:37:28.885Z,10.18
2018-02-04T09:39:56.318Z,10.52
2018-02-04T09:42:23.753Z,10.95
2018-02-04T09:44:51.238Z,10.75
2018-02-04T09:47:18.689Z,10.82
2018-02-04T09:49:46.122Z,10.70
2018-02-04T09:52:13.572Z,11.38
2018-02-04T09:54:41.068Z,10.83
2018-02-04T09:57:08.525Z,10.83
2018-02-04T09:59:35.973Z,11.37
2018-02-04T10:02:03.409Z,10.98
2018-02-04T10:04:30.882Z,10.32
2018-02-04T10:06:58.328Z,10.73
2018-02-04T10:09:25.769Z,11.50
2018-02-04T10:11:53.203Z,11.70
2018-02-04T10:14:21.439Z,12.25
2018-02-04T10:16:48.878Z,12.88
2018-02-04T10:19:16.309Z,14.15
2018-02-04T10:21:43.745Z,14.13
2018-02-04T10:24:11.262Z,14.73
2018-02-04T10:26:38.724Z,14.25
2018-02-04T10:29:06.237Z,14.87
2018-02-04T10:31:33.699Z,14.60
2018-02-04T10:34:01.196Z,15.25
2018-02-04T10:36:28.615Z,15.50
2018-02-04T10:38:56.090Z,16.90
2018-02-04T10:41:23.575Z,17.00
2018-02-04T10:43:51.209Z,16.90
2018-02-04T10:46:18.638Z,15.95
2018-02-04T10:48:46.142Z,18.60
2018-02-04T10:51:19.420Z,18.33
2018-02-04T10:53:46.899Z,18.27
2018-02-04T10:56:14.339Z,18.55
2018-02-04T10:58:41.898Z,17.62
2018-02-04T11:01:09.330Z,17.15
2018-02-04T11:03:36.901Z,17.58
2018-02-04T11:06:04.385Z,17.23
2018-02-04T11:08:31.817Z,16.73
2018-02-04T11:10:59.250Z,18.23
2018-02-04T11:13:26.688Z,16.45
2018-02-04T11:15:54.193Z,15.43
2018-02-04T11:18:21.760Z,16.10
2018-02-04T11:20:49.899Z,16.85
2018-02-04T11:23:17.318Z,17.17
2018-02-04T11:25:45.509Z,16.55
2018-02-04T11:28:13.006Z,18.35
2018-02-04T11:30:40.440Z,15.50
2018-02-04T11:33:07.869Z,16.42
2018-02-04T11:35:36.082Z,17.35
2018-02-04T11:38:03.554Z,17.00
2018-02-04T11:40:31.006Z,17.40
2018-02-04T11:42:58.437Z,17.37
2018-02-04T11:45:25.865Z,17.77
2018-02-04T11:47:54.093Z,16.50
2018-02-04T11:50:21.526Z,16.85
2018-02-04T11:52:48.957Z,18.20
2018-02-04T11:55:17.253Z,17.50
2018-02-04T11:57:44.822Z,18.02
2018-02-04T12:00:12.233Z,16.15
2018-02-04T12:02:40.465Z,16.33
2018-02-04T12:05:07.918Z,15.63
2018-02-04T12:07:35.476Z,17.33
2018-02-04T12:10:02.940Z,15.10
2018-02-04T12:12:30.456Z,15.15
2018-02-04T12:14:57.953Z,13.77
2018-02-04T12:17:25.409Z,14.07
2018-02-04T12:19:52.877Z,12.80
2018-02-04T12:22:20.318Z,11.73
2018-02-04T12:24:47.749Z,12.45
2018-02-04T12:27:15.229Z,11.18
2018-02-04T12:29:42.711Z,12.32
2018-02-04T12:32:10.101Z,11.65
2018-02-04T12:34:37.607Z,11.07
2018-02-04T12:37:05.066Z,11.00
2018-02-04T12:39:32.509Z,11.03
2018-02-04T12:41:59.976Z,10.00
2018-02-04T12:44:27.430Z,10.43
2018-02-04T12:46:54.889Z,9.97
2018-02-04T12:49:22.328Z,10.70
2018-02-04T12:51:49.778Z,11.40
2018-02-04T12:54:17.190Z,10.87
2018-02-04T12:56:44.705Z,12.17
2018-02-04T12:59:12.128Z,10.75
2018-02-04T13:01:39.582Z,11.03
2018-02-04T13:04:07.811Z,11.80
2018-02-04T13:06:35.340Z,11.12
2018-02-04T13:09:02.757Z,11.43
2018-02-04T13:11:31.081Z,12.88
2018-02-04T13:13:58.513Z,12.27
2018-02-04T13:16:25.966Z,11.20
2018-02-04T13:18:53.394Z,12.90
2018-02-04T13:21:20.818Z,10.60
2018-02-04T13:23:49.238Z,10.98
2018-02-04T13:26:17.435Z,11.48
2018-02-04T13:28:45.035Z,11.45
2018-02-04T13:31:12.610Z,10.90
2018-02-04T13:33:40.154Z,11.70
2018-02-04T13:36:07.710Z,11.47
2018-02-04T13:38:35.169Z,11.07
2018-02-04T13:41:02.626Z,11.02
2018-02-04T13:43:30.141Z,10.80
2018-02-04T13:45:58.322Z,11.10
2018-02-04T13:48:25.761Z,10.90
2018-02-04T13:50:54.127Z,11.80
2018-02-04T13:53:21.569Z,11.60
2018-02-04T13:55:49.014Z,11.02
2018-02-04T13:58:16.446Z,11.00
2018-02-04T14:00:43.917Z,11.70
2018-02-04T14:03:11.345Z,10.85
2018-02-04T14:05:38.773Z,11.43
2018-02-04T14:08:07.136Z,12.10
2018-02-04T14:10:34.562Z,12.27
2018-02-04T14:13:02.030Z,10.95
2018-02-04T14:15:29.457Z,11.07
2018-02-04T14:17:56.951Z,11.80
2018-02-04T14:20:24.587Z,12.40
2018-02-04T14:22:51.997Z,13.80
2018-02-04T14:25:20.210Z,11.90
2018-02-04T14:27:47.679Z,12.70
2018-02-04T14:30:15.140Z,11.73
2018-02-04T14:32:42.575Z,13.13
2018-02-04T14:35:10.044Z,13.85
2018-02-04T14:37:37.469Z,13.20
2018-02-04T14:40:04.913Z,12.10
2018-02-04T14:42:33.111Z,12.43
2018-02-04T14:45:00.585Z,12.05
2018-02-04T14:47:28.018Z,11.65
2018-02-04T14:49:55.615Z,11.98
2018-02-04T14:52:23.034Z,11.80
2018-02-04T14:54:50.495Z,12.20
2018-02-04T14:57:18.662Z,10.65
2018-02-04T14:59:46.230Z,11.15
2018-02-04T15:02:13.665Z,11.00
2018-02-04T15:04:41.108Z,11.90
2018-02-04T15:07:09.346Z,12.30
2018-02-04T15:09:36.773Z,11.23
2018-02-04T15:12:04.200Z,11.63
2018-02-04T15:14:31.830Z,11.48
2018-02-04T15:16:59.241Z,11.75
2018-02-04T15:19:26.694Z,11.75
2018-02-04T15:21:54.117Z,11.85
2018-02-04T15:24:22.363Z,11.95
2018-02-04T15:26:50.010Z,11.80
2018-02-04T15:29:17.457Z,11.32
2018-02-04T15:31:44.905Z,12.10
2018-02-04T15:34:12.393Z,11.90
2018-02-04T15:36:39.901Z,12.43
2018-02-04T15:39:07.340Z,11.68
2018-02-04T15:41:35.538Z,11.80
2018-02-04T15:44:02.961Z,13.90
2018-02-04T15:46:31.168Z,13.00
2018-02-04T15:48:58.608Z,12.35
2018-02-04T15:51:26.044Z,13.43
2018-02-04T15:53:53.670Z,13.88
2018-02-04T15:56:21.125Z,13.23
2018-02-04T15:58:48.582Z,14.15
2018-02-04T16:01:16.022Z,15.43
2018-02-04T16:03:43.490Z,15.10
2018-02-04T16:06:11.050Z,15.23
2018-02-04T16:08:38.480Z,15.10
2018-02-04T16:11:05.918Z,15.40
2018-02-04T16:13:34.118Z,15.00
2018-02-04T16:16:01.546Z,15.32
2018-02-04T16:18:28.975Z,15.50
2018-02-04T16:20:56.592Z,15.90
2018-02-04T16:23:24.169Z,15.27
2018-02-04T16:25:51.609Z,16.30
2018-02-04T16:28:19.044Z,16.83
2018-02-04T16:30:46.533Z,15.20
2018-02-04T16:33:13.983Z,17.33
2018-02-04T16:35:42.481Z,15.40
2018-02-04T16:38:09.921Z,15.90
2018-02-04T16:40:37.393Z,17.60
2018-02-04T16:43:04.842Z,16.73
2018-02-04T16:45:32.308Z,16.30
2018-02-04T16:47:59.738Z,17.00
2018-02-04T16:50:27.602Z,17.37
2018-02-04T16:52:55.365Z,17.95
2018-02-04T16:55:22.785Z,19.40
2018-02-04T16:57:51.009Z,18.75
2018-02-04T17:00:18.461Z,17.67
2018-02-04T17:02:45.906Z,18.37
2018-02-04T17:05:13.337Z,17.95
2018-02-04T17:07:40.837Z,19.40
2018-02-04T17:10:08.274Z,20.73
2018-02-04T17:12:35.721Z,16.70
2018-02-04T17:15:03.205Z,16.70
2018-02-04T17:17:30.642Z,16.00
2018-02-04T17:19:58.121Z,16.02
2018-02-04T17:22:25.558Z,17.67
2018-02-04T17:24:53.028Z,15.82
2018-02-04T17:27:20.503Z,17.42
2018-02-04T17:29:48.053Z,15.20
2018-02-04T17:32:15.494Z,17.05
2018-02-04T17:34:42.932Z,17.02
2018-02-04T17:37:10.370Z,15.70
2018-02-04T17:39:37.811Z,17.77
2018-02-04T17:42:06.051Z,14.60
2018-02-04T17:44:33.686Z,17.00
2018-02-04T17:47:01.134Z,15.75
2018-02-04T17:49:28.569Z,17.60
2018-02-04T17:51:56.799Z,15.40
2018-02-04T17:54:24.258Z,15.63
2018-02-04T17:56:51.713Z,15.85
2018-02-04T17:59:19.153Z,16.80
2018-02-04T18:01:46.614Z,16.60
2018-02-04T18:04:14.057Z,17.60
2018-02-04T18:06:41.506Z,15.30
2018-02-04T18:09:08.941Z,17.48
2018-02-04T18:11:37.171Z,19.55
2018-02-04T18:14:04.636Z,18.37
2018-02-04T18:16:32.090Z,19.70
2018-02-04T18:18:59.541Z,19.77
2018-02-04T18:21:27.905Z,15.68
2018-02-04T18:23:55.485Z,16.77
2018-02-04T18:26:22.918Z,17.83
2018-02-04T18:28:50.356Z,16.40
2018-02-04T18:31:17.802Z,17.70
2018-02-04T18:33:45.318Z,18.17
2018-02-04T18:36:12.759Z,16.37
2018-02-04T18:38:40.217Z,15.98
2018-02-04T18:41:07.746Z,17.50
2018-02-04T18:43:35.149Z,16.25
2018-02-04T18:46:03.351Z,16.02
2018-02-04T18:48:30.849Z,15.52
2018-02-04T18:50:58.299Z,16.20
2018-02-04T18:53:25.854Z,13.98
2018-02-04T18:55:53.269Z,13.93
2018-02-04T18:58:21.492Z,16.33
2018-02-04T19:00:49.458Z,15.13
2018-02-04T19:03:16.909Z,17.30
2018-02-04T19:05:44.384Z,13.20
2018-02-04T19:08:11.827Z,13.93
2018-02-04T19:10:39.287Z,14.02
2018-02-04T19:13:06.731Z,13.65
2018-02-04T19:15:34.160Z,13.13
2018-02-04T19:18:01.660Z,12.40
2018-02-04T19:20:29.086Z,12.65
2018-02-04T19:22:56.562Z,12.70
2018-02-04T19:25:23.997Z,12.40
2018-02-04T19:27:51.487Z,12.50
2018-02-04T19:30:18.914Z,13.43
2018-02-04T19:32:46.338Z,13.02
2018-02-04T19:35:14.659Z,16.02
2018-02-04T19:37:42.082Z,13.05
2018-02-04T19:40:09.606Z,12.63
2018-02-04T19:42:37.009Z,14.80
2018-02-04T19:45:04.494Z,13.77
2018-02-04T19:47:31.962Z,13.18
2018-02-04T19:49:59.402Z,12.90
2018-02-04T19:52:26.842Z,12.50
2018-02-04T19:54:54.262Z,13.70
2018-02-04T19:57:22.457Z,14.52
2018-02-04T19:59:49.881Z,12.57
2018-02-04T20:02:17.337Z,13.68
2018-02-04T20:04:44.871Z,13.07
2018-02-04T20:07:12.350Z,13.02
2018-02-04T20:09:39.772Z,13.15
2018-02-04T20:12:07.214Z,12.13
2018-02-04T20:14:34.654Z,13.13
2018-02-04T20:17:02.109Z,12.40
2018-02-04T20:19:29.597Z,13.00
2018-02-04T20:21:57.068Z,12.88
2018-02-04T20:24:24.512Z,13.55
2018-02-04T20:26:52.737Z,12.35
2018-02-04T20:29:21.053Z,12.50
2018-02-04T20:31:48.473Z,13.18
2018-02-04T20:34:28.579Z,12.87
2018-02-04T20:36:56.006Z,14.18
2018-02-04T20:39:23.485Z,13.62
2018-02-04T20:41:51.059Z,14.10
2018-02-04T20:44:18.609Z,13.20
2018-02-04T20:46:46.058Z,12.90
2018-02-04T20:49:13.676Z,14.10
2018-02-04T20:51:41.885Z,12.20
2018-02-04T20:54:09.321Z,12.85
2018-02-04T20:56:36.758Z,14.18
2018-02-04T20:59:04.984Z,13.30
2018-02-04T21:01:32.549Z,12.97
2018-02-04T21:04:00.043Z,14.63
2018-02-04T21:06:27.438Z,12.85
2018-02-04T21:08:54.922Z,12.75
2018-02-04T21:11:22.477Z,13.95
2018-02-04T21:13:49.934Z,13.85
2018-02-04T21:16:17.355Z,14.00
2018-02-04T21:18:44.838Z,15.15
2018-02-04T21:21:12.286Z,12.40
2018-02-04T21:23:39.735Z,13.18
2018-02-04T21:26:07.204Z,12.05
2018-02-04T21:28:34.665Z,12.27
2018-02-04T21:31:02.118Z,12.10
2018-02-04T21:33:29.561Z,12.65
2018-02-04T21:35:57.006Z,14.37
2018-02-04T21:38:24.481Z,12.23
2018-02-04T21:40:52.006Z,12.73
2018-02-04T21:43:19.511Z,11.93
2018-02-04T21:45:46.954Z,12.60
2018-02-04T21:48:14.428Z,13.00
2018-02-04T21:50:41.884Z,13.05
2018-02-04T21:53:09.318Z,12.30
2018-02-04T21:55:36.763Z,12.30
2018-02-04T21:58:04.193Z,13.48
2018-02-04T22:00:32.414Z,11.45
2018-02-04T22:02:59.853Z,10.95
2018-02-04T22:05:27.426Z,12.75
2018-02-04T22:07:54.886Z,13.20
2018-02-04T22:10:22.357Z,12.73
2018-02-04T22:12:49.773Z,11.90
2018-02-04T22:15:17.212Z,12.30
2018-02-04T22:17:44.629Z,11.40
2018-02-04T22:20:12.066Z,11.48
2018-02-04T22:22:39.486Z,10.23
2018-02-04T22:25:06.918Z,10.75
2018-02-04T22:27:34.341Z,13.55
2018-02-04T22:30:01.981Z,10.20
2018-02-04T22:32:29.413Z,11.07
2018-02-04T22:34:56.845Z,10.73
2018-02-04T22:37:25.168Z,9.68
2018-02-04T22:39:52.606Z,9.10
2018-02-04T22:42:20.026Z,10.50
2018-02-04T22:44:47.545Z,9.85
2018-02-04T22:47:15.002Z,9.70
2018-02-04T22:49:42.438Z,9.60
2018-02-04T22:52:09.875Z,9.50
2018-02-04T22:54:37.317Z,8.05
2018-02-04T22:57:04.757Z,8.07
2018-02-04T22:59:32.208Z,7.78
2018-02-04T23:01:59.645Z,7.95
2018-02-04T23:04:27.070Z,7.30
2018-02-04T23:06:54.502Z,7.45
2018-02-04T23:09:21.996Z,7.57
2018-02-04T23:11:49.443Z,7.37
2018-02-04T23:14:16.846Z,8.30
2018-02-04T23:16:44.373Z,6.97
2018-02-04T23:19:11.804Z,7.87
2018-02-04T23:21:39.229Z,7.57
2018-02-04T23:24:07.421Z,8.80
2018-02-04T23:26:34.853Z,8.55
2018-02-04T23:29:02.326Z,7.90
2018-02-04T23:31:30.542Z,8.20
2018-02-04T23:33:57.997Z,8.20
2018-02-04T23:36:25.425Z,8.48
2018-02-04T23:38:52.850Z,8.80
2018-02-04T23:41:20.366Z,8.10
2018-02-04T23:43:47.798Z,7.80
2018-02-04T23:46:15.278Z,7.70
2018-02-04T23:48:42.739Z,7.50
2018-02-04T23:51:10.197Z,8.15
2018-02-04T23:53:37.670Z,6.47
2018-02-04T23:56:05.114Z,7.18
2018-02-04T23:58:32.553Z,6.90
